Warning: A non-numeric value encountered in /home/httpd/v/a/l/valdefench57sgz/valdefench57sgz.franceserv.com/weather28/wsFunctions.php on line 312
WARNING - Change wsUserSettings.php: $SITE["topfolder"] from : /home/httpd/v/a/l/valdefench57sgz/valdefench57sgz.franceserv.com/weather28/ to: weather28/
  Séremange Erzange, Lorraine, Moselle 57, France.  (25 km au Nord de Metz et 10 km au Sud-Ouest de Thionville)    Latitude : 49° 18' 59'' Nord    Longitude : 6° 5' 33'' Est    Altitude : 210 Mètres  



My webcam FOSCAM plus d'informations My webcam FOSCAM


My webcam 2 facing SUD plus d'informations My webcam 2 facing SUD


Visitez nos sites météorologiques autres:

Cartes by Infoclimat

Releves de station MF

Site partenaire

MeteoTemplate

BLOG/MeteoTemplate.com

MK meteokit

HomeWeatherStation WU

Home MeteoLive Station 2

Radar Meteox

Radar Meteo60

carte MétéoAlerte

Image satellite par ARPAL_meteoFermo

Data Infoclimat.fr

Radars Pluies NE

Vigilance meteo FR

Keraunos

Carte Isobares

Tags GFS

Bracknell Animation

Air Lorraine



Crues Valable du: 23-01-2018 16:00 Au: 24-01-2018 16:00 Avertissement pour: Crues Niveau: Jaune info button

Rapports METAR proximité

   
LFJL - Metz
Mise à jour: 24-01-2018 02:30
Nuageux  
Nuageux  
   Vent: Sud 20.4 km/h
Vent: Sud 20.4 km/h
Température: 9°C
éolien: 6°C
Point de rosée: 8°C
Humidité: 94%
Baromètre: 1024 hPa
Nuages: Overcast
visibilité: More then 10 km
Détails des nuages: Nuageux 1300 ft
LFJL 240130Z AUTO 18011KT 9999 OVC013 09/08 Q1024 TEMPO 4500 -RADZ OVC007
ELLX - Luxemburg
Mise à jour: 24-01-2018 02:50
Bruine, Nuageux  
Bruine, Nuageux  
   Vent: Sud Sud Ouest 13 km/h
Vent: Sud Sud Ouest 13 km/h
Température: 8°C
éolien: 6°C
Point de rosée: 7°C
Humidité: 93%
Baromètre: 1023 hPa
Nuages: Overcast
visibilité: 1 km
Détails des nuages: Partiellement Nuageux 0 ft,
Nuageux 100 ft
ELLX 240150Z AUTO 20007KT 1100 R24/P2000N DZ BKN000/// OVC001/// 08/07 Q1023 NOSIG
EDDR - Sarrbrucken
Mise à jour: 24-01-2018 02:50
Nuageux  
Nuageux  
   Vent: Sud Ouest 18.5 km/h
Vent: Sud Ouest 18.5 km/h
Température: 7°C
éolien: 4°C
Point de rosée: 6°C
Humidité: 93%
Baromètre: 1024 hPa
Nuages: Overcast
visibilité: 4 km
Détails des nuages: Nuageux 1000 ft
EDDR 240150Z AUTO 22010KT 3500 // OVC010/// 07/06 Q1024
LFST - Strasbourg
Mise à jour: 24-01-2018 02:30
Nuageux  
Nuageux  
   Vent: Sud 25.9 km/h
Vent: Sud 25.9 km/h
Température: 8°C
éolien: 4°C
Point de rosée: 5°C
Humidité: 82%
Baromètre: 1026 hPa
Nuages: Overcast
visibilité: More then 10 km
Détails des nuages: Partiellement Nuageux 3000 ft,
Nuageux 3600 ft
LFST 240130Z AUTO 18014KT 9999 BKN030 OVC036 08/05 Q1026 NOSIG
  

Script développé par  Saratoga-weather.org Adapté pour le modèle par  Weerstation Leuven

Vous trouverez notre info météo Également à:

UK Metoffice

WeatherCloud

Weather Underground

French Weather Network

AWEKAS

WeatherlinkIP

Citizen Weather Observer Program (CWOP)

HAMweather, WeatherForYou, PWS Weather

Anything Weather

Infoclimat

lineaMeteo

meteonetwork

meteociel

stationmeteo

meteobelgique

wedaal24

wsmap

arps

weatherbug

wetterstationen

windgurucz

         

Équipement que nous utilisons:

Station de Météo
Davis VP2 Plus (Wireless)

Programme Météo
Meteohub

Ordinateur Météo
MeteoLink LAN

Provider
FranceServ Hébergement

Davis VP2 Plus (Wireless)

Meteohub

MeteoLink LAN

FranceServ Hébergement